Time;durP1;ratioP1;P1;durP2;ratioP2;P2;SDS_P1;SDS_P2;PMS_P1;PMS_P2;Temp;Humidity;BMP_temperature;BMP_pressure;BME280_temperature;BME280_humidity;BME280_pressure;Samples;Min_cycle;Max_cycle;Signal;HPM_P1;HPM_P2
2022/10/28 00:00:21;;;;;;;8.10;4.80;;;;;;;13.86;100.00;101734.84;4997447;28;20288;-47
2022/10/28 00:02:46;;;;;;;9.38;4.20;;;;;;;13.85;100.00;101742.06;4996374;28;20209;-48
2022/10/28 00:05:12;;;;;;;10.25;4.32;;;;;;;13.86;100.00;101748.31;4995550;28;20216;-48
2022/10/28 00:07:37;;;;;;;9.18;3.65;;;;;;;13.89;100.00;101741.00;5000040;28;20260;-47
2022/10/28 00:10:03;;;;;;;5.82;3.80;;;;;;;13.89;100.00;101730.22;4999309;28;20204;-47
2022/10/28 00:12:29;;;;;;;8.77;4.13;;;;;;;13.86;100.00;101745.63;4997713;28;20212;-46
2022/10/28 00:14:54;;;;;;;5.28;3.92;;;;;;;13.83;100.00;101735.84;4994131;28;20205;-47
2022/10/28 00:17:20;;;;;;;7.75;3.97;;;;;;;13.77;100.00;101736.06;4994895;28;20181;-47
2022/10/28 00:19:45;;;;;;;5.85;4.03;;;;;;;13.75;100.00;101746.91;4998914;28;20195;-46
2022/10/28 00:22:11;;;;;;;7.32;4.00;;;;;;;13.71;100.00;101747.06;4999472;28;20267;-47
2022/10/28 00:24:36;;;;;;;9.00;4.15;;;;;;;13.65;100.00;101737.41;4988332;28;20291;-44
2022/10/28 00:27:02;;;;;;;6.68;3.97;;;;;;;13.65;100.00;101750.88;4998377;28;20196;-50
2022/10/28 00:29:27;;;;;;;11.13;4.43;;;;;;;13.59;100.00;101748.38;4984528;28;20271;-45
2022/10/28 00:31:54;;;;;;;9.68;3.90;;;;;;;13.55;100.00;101750.31;4999951;28;20181;-44
2022/10/28 00:34:22;;;;;;;6.38;4.47;;;;;;;13.53;100.00;101748.59;4999497;28;20616;-49
2022/10/28 00:36:48;;;;;;;5.93;4.32;;;;;;;13.55;100.00;101763.75;4983844;28;20185;-45
2022/10/28 00:39:14;;;;;;;11.02;4.93;;;;;;;13.58;100.00;101758.28;4999256;28;20188;-49
2022/10/28 00:41:43;;;;;;;7.20;4.57;;;;;;;13.53;100.00;101760.25;4996573;28;20179;-44
2022/10/28 00:44:46;;;;;;;11.45;5.32;;;;;;;13.49;100.00;101760.41;4998769;28;20706;-48
2022/10/28 00:47:50;;;;;;;7.82;4.50;;;;;;;13.50;100.00;101755.00;4996091;28;20529;-44
2022/10/28 00:50:25;;;;;;;8.30;5.00;;;;;;;13.45;100.00;101759.66;4998179;28;20208;-46
2022/10/28 00:53:00;;;;;;;8.25;5.10;;;;;;;13.45;100.00;101756.97;4998753;28;20168;-45
2022/10/28 00:55:26;;;;;;;6.47;4.68;;;;;;;13.49;100.00;101757.72;4991164;28;20213;-46
2022/10/28 00:57:56;;;;;;;11.48;5.10;;;;;;;13.45;100.00;101765.06;5003813;28;20243;-47
2022/10/28 01:00:24;;;;;;;10.30;4.95;;;;;;;13.43;100.00;101758.84;5002351;28;20181;-46
2022/10/28 01:02:49;;;;;;;11.25;5.50;;;;;;;13.39;100.00;101754.50;5001764;28;20205;-49
2022/10/28 01:05:20;;;;;;;8.32;5.60;;;;;;;13.39;100.00;101758.06;5003366;28;20624;-47
2022/10/28 01:07:46;;;;;;;10.43;4.88;;;;;;;13.36;100.00;101762.69;5007048;28;20192;-49
2022/10/28 01:10:13;;;;;;;6.85;5.50;;;;;;;13.37;100.00;101756.34;4999514;28;20185;-44
2022/10/28 01:13:02;;;;;;;9.52;5.57;;;;;;;13.37;100.00;101756.34;5003333;28;20180;-46
2022/10/28 01:15:43;;;;;;;8.55;5.65;;;;;;;13.35;100.00;101747.44;4962823;28;20742;-49
2022/10/28 01:18:40;;;;;;;8.15;5.53;;;;;;;13.29;100.00;101750.34;5002398;28;20199;-46
2022/10/28 01:21:23;;;;;;;10.73;6.13;;;;;;;13.29;100.00;101767.38;5003034;28;20176;-46
2022/10/28 01:24:06;;;;;;;12.73;6.03;;;;;;;13.29;100.00;101747.66;5002006;28;20189;-46
2022/10/28 01:26:37;;;;;;;10.18;5.50;;;;;;;13.31;100.00;101743.97;5004088;28;20189;-45
2022/10/28 01:29:34;;;;;;;7.95;5.20;;;;;;;13.29;100.00;101748.53;5000539;28;20209;-48
2022/10/28 01:32:32;;;;;;;8.15;5.30;;;;;;;13.25;100.00;101748.66;5002191;28;20779;-44
2022/10/28 01:35:23;;;;;;;10.77;5.88;;;;;;;13.23;100.00;101748.75;4978073;28;20532;-45
2022/10/28 01:38:08;;;;;;;13.63;5.85;;;;;;;13.21;100.00;101745.22;4998340;28;20188;-44
2022/10/28 01:41:10;;;;;;;8.70;5.80;;;;;;;13.16;100.00;101734.63;4982741;28;20268;-45
2022/10/28 01:44:14;;;;;;;9.32;5.78;;;;;;;13.17;100.00;101740.88;4951444;28;20216;-47
2022/10/28 01:46:59;;;;;;;10.63;5.72;;;;;;;13.14;100.00;101741.88;4999486;28;20661;-47
2022/10/28 01:49:29;;;;;;;14.23;6.57;;;;;;;13.08;100.00;101735.81;4996594;28;20192;-49
2022/10/28 01:52:01;;;;;;;10.98;6.20;;;;;;;13.15;100.00;101740.91;5007382;28;20177;-50
2022/10/28 01:54:31;;;;;;;9.90;6.50;;;;;;;13.16;100.00;101741.78;4991507;28;20726;-46
2022/10/28 01:56:58;;;;;;;10.20;5.93;;;;;;;13.09;100.00;101733.03;4998435;28;20528;-48
2022/10/28 01:59:27;;;;;;;12.05;6.50;;;;;;;13.06;100.00;101738.53;4989448;28;20187;-46
2022/10/28 02:01:53;;;;;;;11.45;6.40;;;;;;;13.07;100.00;101734.91;4998339;28;20743;-45
2022/10/28 02:04:18;;;;;;;9.82;6.13;;;;;;;13.05;100.00;101738.59;5000690;28;20299;-45
2022/10/28 02:06:49;;;;;;;11.15;5.80;;;;;;;13.06;100.00;101735.84;5000137;28;20280;-43
2022/10/28 02:09:50;;;;;;;6.85;6.15;;;;;;;13.04;100.00;101739.53;5000816;28;20590;-43
2022/10/28 02:12:27;;;;;;;15.43;7.13;;;;;;;13.03;100.00;101737.75;4997456;28;20193;-44
2022/10/28 02:15:17;;;;;;;9.40;6.88;;;;;;;13.01;100.00;101740.53;4997707;28;20200;-45
2022/10/28 02:17:55;;;;;;;11.05;6.85;;;;;;;12.98;100.00;101727.16;5000292;28;20244;-46
2022/10/28 02:20:52;;;;;;;13.73;7.32;;;;;;;13.00;100.00;101736.06;5003205;28;20169;-46
2022/10/28 02:23:27;;;;;;;13.95;7.65;;;;;;;12.98;100.00;101740.59;5000908;28;20190;-44
2022/10/28 02:26:04;;;;;;;8.90;7.10;;;;;;;12.96;100.00;101748.72;4999830;28;20616;-48
2022/10/28 02:28:36;;;;;;;15.73;7.38;;;;;;;12.96;100.00;101737.09;4989531;28;20217;-46
2022/10/28 02:31:25;;;;;;;11.38;7.25;;;;;;;12.98;100.00;101736.09;4996308;28;20181;-44
2022/10/28 02:33:55;;;;;;;9.63;7.45;;;;;;;13.01;100.00;101745.00;4979283;28;20589;-45
2022/10/28 02:36:23;;;;;;;12.82;7.25;;;;;;;12.96;100.00;101729.03;5000528;28;20382;-44
2022/10/28 02:38:54;;;;;;;10.60;7.22;;;;;;;12.95;100.00;101733.53;5002933;28;20173;-44
2022/10/28 02:41:27;;;;;;;9.88;7.20;;;;;;;12.95;100.00;101736.22;4995477;28;20197;-45
2022/10/28 02:43:57;;;;;;;12.55;6.60;;;;;;;12.96;100.00;101721.81;4996116;28;20177;-49
2022/10/28 02:46:26;;;;;;;12.18;7.10;;;;;;;12.95;100.00;101724.59;4998292;28;20529;-48
2022/10/28 02:48:56;;;;;;;7.97;5.95;;;;;;;12.94;100.00;101722.81;5000883;28;20260;-46
2022/10/28 02:51:33;;;;;;;12.93;7.30;;;;;;;12.86;100.00;101732.97;5000678;28;20186;-50
2022/10/28 02:54:09;;;;;;;11.60;7.43;;;;;;;12.83;100.00;101725.84;4999910;28;20597;-43
2022/10/28 02:57:02;;;;;;;12.30;6.57;;;;;;;12.82;100.00;101729.50;5001158;28;20172;-43
2022/10/28 02:59:28;;;;;;;10.98;7.55;;;;;;;12.83;100.00;101725.84;4993232;28;20209;-46
2022/10/28 03:01:54;;;;;;;11.63;7.70;;;;;;;12.83;100.00;101724.97;5000640;28;20184;-49
2022/10/28 03:08:07;;;;;;;9.38;8.02;;;;;;;12.82;100.00;101718.72;5005579;28;20223;-43
2022/10/28 03:10:32;;;;;;;13.38;8.02;;;;;;;12.80;100.00;101730.47;5002118;28;20193;-44
2022/10/28 03:12:58;;;;;;;15.20;8.02;;;;;;;12.83;100.00;101714.22;5000311;28;20616;-49
2022/10/28 03:15:23;;;;;;;12.93;7.90;;;;;;;12.81;100.00;101711.56;4987834;28;20596;-44
2022/10/28 03:17:49;;;;;;;15.55;8.57;;;;;;;12.82;100.00;101715.16;4995290;28;20195;-45
2022/10/28 03:20:14;;;;;;;12.48;7.65;;;;;;;12.76;100.00;101710.88;4995741;28;20694;-45
2022/10/28 03:22:42;;;;;;;13.50;8.48;;;;;;;12.78;100.00;101717.94;4988397;28;20224;-43
2022/10/28 03:25:08;;;;;;;16.17;8.93;;;;;;;12.76;100.00;101717.13;4994942;28;20200;-43
2022/10/28 03:27:33;;;;;;;16.35;7.93;;;;;;;12.78;100.00;101717.94;4987717;28;20185;-45
2022/10/28 03:29:59;;;;;;;16.00;8.65;;;;;;;12.81;100.00;101722.34;4995551;28;20188;-48
2022/10/28 03:32:24;;;;;;;12.85;8.38;;;;;;;12.84;100.00;101708.81;4998001;28;20660;-45
2022/10/28 03:34:50;;;;;;;12.93;8.52;;;;;;;12.86;100.00;101704.25;4999615;28;20547;-45
2022/10/28 03:37:15;;;;;;;12.23;8.40;;;;;;;12.89;100.00;101719.41;4998891;28;20172;-48
2022/10/28 03:39:41;;;;;;;13.88;8.43;;;;;;;12.87;100.00;101726.66;5000697;28;20243;-45
2022/10/28 03:42:06;;;;;;;16.05;8.55;;;;;;;12.84;100.00;101719.56;5003088;28;20180;-44
2022/10/28 03:44:31;;;;;;;10.57;8.43;;;;;;;12.84;100.00;101708.81;4997885;28;20213;-48
2022/10/28 03:46:57;;;;;;;11.45;8.30;;;;;;;12.90;100.00;101722.06;4980089;28;20216;-43
2022/10/28 03:49:22;;;;;;;16.42;8.50;;;;;;;12.89;100.00;101716.72;4981693;28;20204;-45
2022/10/28 03:51:48;;;;;;;17.38;9.77;;;;;;;12.94;100.00;101720.13;4997433;28;20185;-48
2022/10/28 03:54:13;;;;;;;11.88;8.27;;;;;;;12.91;100.00;101707.66;4999782;28;20217;-45
2022/10/28 03:56:39;;;;;;;12.43;8.20;;;;;;;12.94;100.00;101707.56;5000679;28;20184;-45
2022/10/28 03:59:07;;;;;;;20.40;8.80;;;;;;;12.94;100.00;101699.50;4986286;28;20176;-45
2022/10/28 04:01:33;;;;;;;13.13;7.95;;;;;;;12.95;100.00;101695.00;4995078;28;20264;-45
2022/10/28 04:03:58;;;;;;;13.32;9.10;;;;;;;12.97;100.00;101695.81;4996655;28;20303;-49
2022/10/28 04:06:24;;;;;;;13.20;8.15;;;;;;;13.05;100.00;101703.63;4996965;28;20578;-45
2022/10/28 04:08:49;;;;;;;10.35;7.55;;;;;;;13.04;100.00;101699.19;4996072;28;20288;-43
2022/10/28 04:11:14;;;;;;;10.63;7.70;;;;;;;13.03;100.00;101698.31;5000071;28;20208;-46
2022/10/28 04:13:40;;;;;;;16.30;8.52;;;;;;;12.98;100.00;101689.50;4996596;28;20181;-45
2022/10/28 04:16:06;;;;;;;9.00;7.95;;;;;;;13.00;100.00;101690.31;4994576;28;20209;-45
2022/10/28 04:18:31;;;;;;;9.75;7.40;;;;;;;12.99;100.00;101699.34;4988075;28;20670;-44
2022/10/28 04:20:57;;;;;;;12.50;8.00;;;;;;;12.97;100.00;101695.81;4993585;28;20173;-45
2022/10/28 04:23:22;;;;;;;20.42;8.82;;;;;;;12.99;100.00;101685.91;5001056;28;20397;-47
2022/10/28 04:25:53;;;;;;;11.60;7.70;;;;;;;13.00;100.00;101690.31;4995135;28;20654;-44
2022/10/28 04:28:18;;;;;;;14.07;8.13;;;;;;;13.01;100.00;101678.66;4999854;28;20209;-45
2022/10/28 04:30:46;;;;;;;15.23;9.57;;;;;;;13.03;100.00;101676.78;5001420;28;20217;-44
2022/10/28 04:33:11;;;;;;;12.10;7.40;;;;;;;13.06;100.00;101668.59;4998228;28;20185;-43
2022/10/28 04:35:38;;;;;;;13.68;8.18;;;;;;;13.03;100.00;101683.97;5001764;28;20236;-43
2022/10/28 04:38:04;;;;;;;11.65;8.77;;;;;;;13.06;100.00;101668.59;4999350;28;20926;-43
2022/10/28 04:40:29;;;;;;;12.77;7.63;;;;;;;12.99;100.00;101672.44;4986366;28;20275;-42
2022/10/28 04:42:55;;;;;;;14.05;8.43;;;;;;;13.03;100.00;101674.09;4986714;28;20205;-43
2022/10/28 04:45:20;;;;;;;10.88;7.30;;;;;;;13.05;100.00;101672.19;4997407;28;20237;-44
2022/10/28 04:47:46;;;;;;;14.43;8.02;;;;;;;13.04;100.00;101659.69;5001483;28;20651;-44
2022/10/28 04:50:12;;;;;;;11.27;6.55;;;;;;;13.05;100.00;101658.75;5002049;28;20216;-43
2022/10/28 04:52:37;;;;;;;7.75;5.95;;;;;;;13.03;100.00;101657.97;4998380;28;20180;-42
2022/10/28 04:55:03;;;;;;;9.05;6.68;;;;;;;12.85;100.00;101661.28;4999836;28;21132;-44
2022/10/28 04:57:29;;;;;;;12.20;7.35;;;;;;;12.83;100.00;101655.06;4997077;28;20561;-44
2022/10/28 04:59:54;;;;;;;9.10;6.88;;;;;;;12.77;100.00;101648.97;4999003;28;20177;-43
2022/10/28 05:02:21;;;;;;;11.10;6.53;;;;;;;12.77;100.00;101642.72;4998064;28;20319;-43
2022/10/28 05:04:47;;;;;;;7.38;5.50;;;;;;;12.80;100.00;101639.91;4998261;28;20284;-44
2022/10/28 05:07:12;;;;;;;9.75;6.80;;;;;;;12.74;100.00;101641.00;4996995;28;20297;-44
2022/10/28 05:09:37;;;;;;;13.85;6.53;;;;;;;12.67;100.00;101639.44;4992427;28;20169;-43
2022/10/28 05:12:03;;;;;;;8.98;6.22;;;;;;;12.61;100.00;101636.97;4999106;28;20649;-43
2022/10/28 05:14:29;;;;;;;8.68;6.50;;;;;;;12.57;100.00;101643.38;4996936;28;20205;-44
2022/10/28 05:16:54;;;;;;;8.27;5.68;;;;;;;12.57;100.00;101648.75;4999525;28;20177;-44
2022/10/28 05:19:20;;;;;;;8.38;5.38;;;;;;;12.54;100.00;101643.50;4999060;28;20177;-45
2022/10/28 05:21:45;;;;;;;9.95;6.25;;;;;;;12.50;100.00;101642.69;4999382;28;20612;-44
2022/10/28 05:24:10;;;;;;;9.07;6.37;;;;;;;12.48;100.00;101658.00;4996837;28;20248;-45
2022/10/28 05:26:36;;;;;;;10.63;6.47;;;;;;;12.42;100.00;101662.69;4998483;28;20240;-44
2022/10/28 05:29:01;;;;;;;11.98;7.70;;;;;;;12.35;100.00;101662.91;4998439;28;20240;-43
2022/10/28 05:31:27;;;;;;;11.82;7.50;;;;;;;12.44;100.00;101656.38;5001864;28;20223;-44
2022/10/28 05:33:52;;;;;;;15.80;9.68;;;;;;;12.50;100.00;101666.88;5001433;28;20271;-45
2022/10/28 05:36:17;;;;;;;14.70;8.18;;;;;;;12.53;100.00;101668.63;4997900;28;20636;-44
2022/10/28 05:38:44;;;;;;;13.95;9.85;;;;;;;12.60;100.00;101682.75;4998068;28;20264;-46
2022/10/28 05:41:09;;;;;;;15.18;10.45;;;;;;;12.70;100.00;101673.41;4997511;28;20196;-42
2022/10/28 05:43:35;;;;;;;17.85;9.75;;;;;;;12.74;100.00;101672.38;4999745;28;20189;-43
2022/10/28 05:46:02;;;;;;;19.30;11.27;;;;;;;12.77;100.00;101669.63;4997750;28;20213;-44
2022/10/28 05:48:28;;;;;;;15.65;9.68;;;;;;;12.77;100.00;101675.00;4999296;28;20236;-44
2022/10/28 05:50:53;;;;;;;14.30;9.73;;;;;;;12.80;100.00;101680.25;4998674;28;20611;-45
2022/10/28 05:53:19;;;;;;;16.55;10.63;;;;;;;12.87;100.00;101686.31;4997683;28;20215;-46
2022/10/28 05:55:44;;;;;;;15.30;10.07;;;;;;;12.87;100.00;101673.72;4999846;28;20203;-45
2022/10/28 05:58:09;;;;;;;15.32;9.40;;;;;;;12.89;100.00;101677.25;4996491;28;20699;-45
2022/10/28 06:00:35;;;;;;;17.00;10.30;;;;;;;12.90;100.00;101667.34;5001180;28;20177;-43
2022/10/28 06:03:09;;;;;;;15.63;9.68;;;;;;;12.97;100.00;101666.25;5002765;28;20193;-46
2022/10/28 06:05:41;;;;;;;15.73;11.77;;;;;;;12.96;100.00;101662.63;5002176;28;20898;-47
2022/10/28 06:08:07;;;;;;;15.00;9.32;;;;;;;12.97;100.00;101668.94;4999664;28;20243;-45
2022/10/28 06:10:33;;;;;;;16.95;9.23;;;;;;;12.99;100.00;101664.38;5000698;28;20204;-44
2022/10/28 06:12:58;;;;;;;11.23;8.68;;;;;;;12.99;100.00;101667.94;4996593;28;20238;-44
2022/10/28 06:15:25;;;;;;;15.65;9.10;;;;;;;13.01;100.00;101656.22;5000564;28;20263;-44
2022/10/28 06:17:50;;;;;;;15.52;9.25;;;;;;;12.99;100.00;101665.25;4996117;28;20648;-44
2022/10/28 06:20:17;;;;;;;16.98;9.05;;;;;;;12.98;100.00;101666.16;4996318;28;20197;-46
2022/10/28 06:22:48;;;;;;;16.33;10.20;;;;;;;12.97;100.00;101656.34;4993386;28;20188;-43
2022/10/28 06:25:13;;;;;;;12.15;9.18;;;;;;;12.95;100.00;101663.59;4998212;28;20770;-48
2022/10/28 06:27:39;;;;;;;9.63;8.43;;;;;;;12.97;100.00;101667.09;4999209;28;20210;-43
2022/10/28 06:30:05;;;;;;;18.15;8.82;;;;;;;12.96;100.00;101667.16;4981292;28;20199;-44
2022/10/28 06:32:30;;;;;;;9.68;7.80;;;;;;;12.98;100.00;101662.59;4997765;28;20222;-46
2022/10/28 06:34:56;;;;;;;10.38;7.97;;;;;;;12.96;100.00;101659.09;4995586;28;20608;-44
2022/10/28 06:37:21;;;;;;;12.38;7.22;;;;;;;12.89;100.00;101668.31;4999228;28;20328;-46
2022/10/28 06:39:51;;;;;;;12.18;7.85;;;;;;;12.81;100.00;101668.56;4997268;28;20169;-47
2022/10/28 06:42:17;;;;;;;14.48;7.88;;;;;;;12.86;100.00;101668.41;4996362;28;20189;-47
2022/10/28 06:44:42;;;;;;;11.65;7.97;;;;;;;12.82;100.00;101669.44;5000274;28;20291;-49
2022/10/28 06:47:08;;;;;;;13.38;8.32;;;;;;;12.80;100.00;101668.63;5000783;28;20640;-45
2022/10/28 06:49:33;;;;;;;11.38;8.32;;;;;;;12.85;100.00;101669.34;4996214;28;20197;-45
2022/10/28 06:51:59;;;;;;;14.13;8.50;;;;;;;12.85;100.00;101672.03;4997157;28;20267;-49
2022/10/28 06:54:24;;;;;;;12.07;8.15;;;;;;;12.86;100.00;101671.97;4996066;28;20212;-44
2022/10/28 06:56:50;;;;;;;12.50;8.77;;;;;;;12.85;100.00;101653.19;4989346;28;20260;-45
2022/10/28 06:59:15;;;;;;;14.20;8.63;;;;;;;12.82;100.00;101666.75;4998040;28;20260;-47
2022/10/28 07:01:40;;;;;;;15.32;9.02;;;;;;;12.80;100.00;101666.81;4996782;28;20168;-43
2022/10/28 07:04:11;;;;;;;13.48;8.38;;;;;;;12.77;100.00;101662.41;4998595;28;20193;-46
2022/10/28 07:06:36;;;;;;;15.05;8.98;;;;;;;12.79;100.00;101662.38;4996232;28;20636;-44
2022/10/28 07:09:02;;;;;;;15.85;9.15;;;;;;;12.84;100.00;101662.22;5001203;28;20246;-45
2022/10/28 07:11:27;;;;;;;18.77;9.25;;;;;;;12.79;100.00;101659.69;4996313;28;20169;-47
2022/10/28 07:13:53;;;;;;;12.75;8.73;;;;;;;12.80;100.00;101661.44;4999274;28;20185;-44
2022/10/28 07:16:18;;;;;;;18.45;9.82;;;;;;;12.75;100.00;101660.72;4987601;28;20702;-45
2022/10/28 07:18:44;;;;;;;14.82;8.38;;;;;;;12.78;100.00;101669.53;4999590;28;20169;-46
2022/10/28 07:21:09;;;;;;;9.35;8.02;;;;;;;12.86;100.00;101671.97;4996189;28;20640;-44
2022/10/28 07:23:35;;;;;;;14.98;8.85;;;;;;;12.89;100.00;101668.31;4998160;28;20177;-45
2022/10/28 07:26:00;;;;;;;14.63;8.02;;;;;;;12.88;100.00;101655.78;4995524;28;20236;-46
2022/10/28 07:28:26;;;;;;;12.90;8.60;;;;;;;12.86;100.00;101660.34;4998238;28;20677;-44
2022/10/28 07:30:52;;;;;;;16.20;8.48;;;;;;;12.88;100.00;101653.09;4998368;28;20545;-44
2022/10/28 07:33:18;;;;;;;11.00;8.05;;;;;;;12.91;100.00;101645.78;4996120;28;20176;-47
2022/10/28 07:35:43;;;;;;;14.35;8.15;;;;;;;12.94;100.00;101655.56;4997884;28;20585;-44
2022/10/28 07:38:10;;;;;;;15.73;7.70;;;;;;;13.05;100.00;101647.13;5003407;28;20551;-46
2022/10/28 07:40:36;;;;;;;17.35;8.10;;;;;;;13.15;100.00;101649.44;4983556;28;20661;-44
2022/10/28 07:43:01;;;;;;;12.00;7.22;;;;;;;13.20;100.00;101651.94;4996659;28;20220;-44
2022/10/28 07:45:27;;;;;;;14.57;8.10;;;;;;;13.28;100.00;101649.91;4999084;28;20201;-47
2022/10/28 07:47:52;;;;;;;16.88;7.28;;;;;;;13.34;100.00;101659.59;4996977;28;20192;-44
2022/10/28 07:50:18;;;;;;;14.70;7.43;;;;;;;13.43;100.00;101659.25;5001336;28;20185;-44
2022/10/28 07:52:44;;;;;;;14.40;6.80;;;;;;;13.51;100.00;101649.06;5000026;28;20673;-45
2022/10/28 07:55:10;;;;;;;11.55;7.25;;;;;;;13.59;100.00;101651.47;5000851;28;20220;-48
2022/10/28 07:57:37;;;;;;;9.77;7.20;;;;;;;13.68;100.00;101644.84;4979358;28;20243;-45
2022/10/28 08:00:05;;;;;;;15.75;9.25;;;;;;;13.74;100.00;101650.00;4986699;28;20180;-47
2022/10/28 08:02:36;;;;;;;7.35;6.35;;;;;;;13.89;100.00;101645.84;5000044;28;20279;-52
2022/10/28 08:05:02;;;;;;;8.98;6.60;;;;;;;13.96;100.00;101644.66;4997453;28;20231;-51
2022/10/28 08:07:27;;;;;;;12.85;6.38;;;;;;;14.12;100.00;101637.72;5008950;28;20263;-46
2022/10/28 08:09:53;;;;;;;9.48;6.20;;;;;;;14.31;100.00;101639.69;5000631;28;20219;-45
2022/10/28 08:12:18;;;;;;;7.07;5.18;;;;;;;14.49;100.00;101628.13;4987931;28;20281;-46
2022/10/28 08:14:44;;;;;;;10.20;7.35;;;;;;;14.66;100.00;101630.16;5002580;28;20204;-43
2022/10/28 08:17:09;;;;;;;11.00;5.85;;;;;;;14.76;100.00;101630.66;4989587;28;20212;-46
2022/10/28 08:19:34;;;;;;;12.23;5.85;;;;;;;14.93;100.00;101619.09;5003926;28;20181;-45
2022/10/28 08:22:01;;;;;;;9.02;6.03;;;;;;;14.97;100.00;101610.78;5007183;28;20185;-44
2022/10/28 08:24:26;;;;;;;8.48;5.70;;;;;;;15.23;100.00;101614.16;5004739;28;20211;-49
2022/10/28 08:26:52;;;;;;;9.82;5.38;;;;;;;15.35;100.00;101607.31;5004235;28;20300;-45
2022/10/28 08:29:17;;;;;;;9.45;5.57;;;;;;;15.57;100.00;101585.63;5005568;28;20249;-44
2022/10/28 08:31:43;;;;;;;8.95;5.13;;;;;;;15.59;100.00;101584.59;5001097;28;20249;-48
2022/10/28 08:34:08;;;;;;;9.70;5.30;;;;;;;15.64;100.00;101587.06;4998950;28;20181;-43
2022/10/28 08:36:34;;;;;;;9.40;4.97;;;;;;;15.70;100.00;101581.38;5004430;28;20200;-44
2022/10/28 08:39:00;;;;;;;10.15;5.43;;;;;;;15.63;100.00;101586.22;5000689;28;20181;-43
2022/10/28 08:41:35;;;;;;;10.52;5.35;;;;;;;15.70;100.00;101585.88;5001339;28;20192;-44
2022/10/28 08:44:33;;;;;;;25.50;13.15;;;;;;;15.88;100.00;101586.91;5002278;28;20188;-48
2022/10/28 08:47:20;;;;;;;9.70;5.55;;;;;;;16.01;100.00;101577.25;5003253;28;20173;-45
2022/10/28 08:49:50;;;;;;;9.55;5.28;;;;;;;16.12;100.00;101571.31;5001114;28;20182;-48
2022/10/28 08:52:27;;;;;;;12.60;7.90;;;;;;;16.21;100.00;101570.84;5001397;28;20290;-48
2022/10/28 08:54:58;;;;;;;10.77;5.88;;;;;;;16.37;100.00;101557.41;4995369;28;20205;-44
2022/10/28 08:57:31;;;;;;;11.77;5.78;;;;;;;16.48;100.00;101563.13;5001563;28;20182;-46
2022/10/28 08:59:58;;;;;;;10.30;4.82;;;;;;;16.73;100.00;101551.94;5002165;28;20190;-45
2022/10/28 09:02:30;;;;;;;11.00;4.28;;;;;;;16.79;100.00;101556.13;4983236;28;20246;-49
2022/10/28 09:05:11;;;;;;;9.40;4.47;;;;;;;16.80;100.00;101556.09;5000015;28;20601;-49
2022/10/28 09:07:36;;;;;;;8.00;5.32;;;;;;;16.78;nan;101552.56;4999958;28;20204;-47
2022/10/28 09:10:04;;;;;;;7.93;3.95;;;;;;;16.83;100.00;101541.53;5002457;28;20688;-44
2022/10/28 09:13:05;;;;;;;12.00;4.35;;;;;;;17.02;100.00;101539.59;4998572;28;20679;-43
2022/10/28 09:15:36;;;;;;;9.95;4.38;;;;;;;16.89;100.00;101547.47;4996014;28;20304;-46
2022/10/28 09:18:18;;;;;;;8.30;4.18;;;;;;;17.18;100.00;101539.63;4999492;28;20857;-46
2022/10/28 09:20:43;;;;;;;14.15;4.40;;;;;;;17.13;100.00;101539.00;4999615;28;20707;-43
2022/10/28 09:23:28;;;;;;;9.30;4.68;;;;;;;17.11;100.00;101550.88;5000452;28;20198;-46
2022/10/28 09:25:56;;;;;;;8.80;4.10;;;;;;;17.25;100.00;101535.63;4981114;28;20217;-45
2022/10/28 09:28:40;;;;;;;7.47;4.00;;;;;;;17.36;100.00;101528.72;4999287;28;20656;-44
2022/10/28 09:31:18;;;;;;;8.40;3.92;;;;;;;17.33;100.00;101534.34;4997335;28;20181;-45
2022/10/28 09:34:03;;;;;;;14.32;4.38;;;;;;;17.57;99.83;101532.09;5001398;28;20208;-46
2022/10/28 09:36:40;;;;;;;8.82;3.90;;;;;;;17.48;99.32;101523.50;5001178;28;20186;-45
2022/10/28 09:39:13;;;;;;;7.70;3.67;;;;;;;17.75;98.75;101517.47;4999804;28;20619;-45
2022/10/28 09:41:41;;;;;;;9.60;3.78;;;;;;;17.75;98.08;101527.44;4997855;28;20204;-43
2022/10/28 09:44:16;;;;;;;8.52;4.03;;;;;;;17.88;97.75;101528.53;4996865;28;20236;-45
2022/10/28 09:46:45;;;;;;;16.27;3.97;;;;;;;17.80;97.24;101525.34;4984979;28;20207;-46
2022/10/28 09:49:17;;;;;;;11.43;3.78;;;;;;;17.71;96.82;101518.63;4998425;28;20207;-45
2022/10/28 09:51:51;;;;;;;14.20;3.95;;;;;;;17.84;96.88;101524.22;5000299;28;20192;-47
2022/10/28 09:54:32;;;;;;;8.75;3.60;;;;;;;17.98;96.21;101527.03;4999297;28;20209;-45
2022/10/28 09:56:57;;;;;;;7.75;3.95;;;;;;;18.07;95.44;101540.06;4998789;28;20172;-44
2022/10/28 09:59:23;;;;;;;10.23;3.58;;;;;;;18.00;95.10;101525.13;4998682;28;20193;-47
2022/10/28 10:01:49;;;;;;;7.45;3.70;;;;;;;17.99;94.48;101530.63;4999697;28;20173;-44
2022/10/28 10:04:23;;;;;;;15.77;4.00;;;;;;;18.11;94.77;101517.22;4997183;28;20231;-46
2022/10/28 10:06:53;;;;;;;8.55;3.70;;;;;;;18.22;94.06;101523.84;4998563;28;20188;-46
2022/10/28 10:09:28;;;;;;;5.97;3.42;;;;;;;18.07;94.06;101512.06;4998421;28;20184;-44
2022/10/28 10:12:06;;;;;;;6.78;3.55;;;;;;;18.21;93.65;101517.53;4999498;28;20250;-43
2022/10/28 10:14:43;;;;;;;9.43;3.28;;;;;;;18.31;93.01;101526.88;4999300;28;20196;-44
2022/10/28 10:17:14;;;;;;;7.30;3.58;;;;;;;18.38;92.87;101530.09;4980472;28;20189;-44
2022/10/28 10:20:01;;;;;;;9.55;3.75;;;;;;;18.26;92.31;101522.72;4996126;28;20621;-45
2022/10/28 10:22:36;;;;;;;13.63;3.85;;;;;;;18.23;91.75;101518.31;5000427;28;20201;-47
2022/10/28 10:25:17;;;;;;;7.78;3.65;;;;;;;18.41;92.67;101516.38;4996968;28;20223;-46
2022/10/28 10:27:56;;;;;;;8.98;3.28;;;;;;;18.42;92.69;101509.09;4998929;28;20279;-43
2022/10/28 10:30:29;;;;;;;11.07;3.20;;;;;;;18.33;92.73;101521.38;4998433;28;20212;-44
2022/10/28 10:32:55;;;;;;;6.20;3.58;;;;;;;18.45;92.27;101515.19;4995641;28;20165;-43
2022/10/28 10:35:30;;;;;;;8.27;3.63;;;;;;;18.57;92.21;101507.28;4996176;28;20213;-45
2022/10/28 10:37:57;;;;;;;9.98;3.70;;;;;;;18.51;92.22;101508.53;4998553;28;20465;-45
2022/10/28 10:40:29;;;;;;;8.70;3.35;;;;;;;18.50;92.30;101504.94;4991321;28;20196;-44
2022/10/28 10:43:12;;;;;;;8.75;3.97;;;;;;;18.50;92.01;101506.81;4998577;28;20193;-42
2022/10/28 10:45:38;;;;;;;8.30;3.83;;;;;;;18.68;91.44;101507.50;4985138;28;20224;-45
2022/10/28 10:48:14;;;;;;;10.70;4.00;;;;;;;18.54;90.90;101492.03;4997797;28;20177;-45
2022/10/28 10:50:43;;;;;;;11.55;3.80;;;;;;;18.65;91.13;101505.84;4997431;28;20203;-44
2022/10/28 10:53:22;;;;;;;10.25;3.80;;;;;;;18.62;90.57;101503.31;4996653;28;20250;-44
2022/10/28 10:55:51;;;;;;;13.30;4.65;;;;;;;18.60;90.66;101499.81;4990292;28;20682;-43
2022/10/28 10:58:20;;;;;;;9.10;3.75;;;;;;;18.69;90.37;101501.09;4996636;28;20791;-44
2022/10/28 11:00:51;;;;;;;7.70;3.47;;;;;;;18.91;90.28;101500.66;4998397;28;20169;-43
2022/10/28 11:03:26;;;;;;;7.10;3.72;;;;;;;19.00;90.37;101485.63;4996063;28;20189;-44
2022/10/28 11:05:56;;;;;;;8.63;4.05;;;;;;;18.76;90.99;101490.72;4995979;28;20254;-45
2022/10/28 11:08:36;;;;;;;8.85;3.97;;;;;;;18.96;90.75;101476.81;4996471;28;20173;-43
2022/10/28 11:11:30;;;;;;;9.65;4.05;;;;;;;19.07;89.75;101474.31;4996944;28;20224;-44
2022/10/28 11:14:19;;;;;;;10.77;4.25;;;;;;;19.01;89.04;101466.53;4997086;28;21160;-45
2022/10/28 11:16:52;;;;;;;10.65;4.10;;;;;;;19.29;88.94;101471.06;4994303;28;20196;-44
2022/10/28 11:19:29;;;;;;;13.32;3.88;;;;;;;19.02;88.10;101454.72;4996537;28;20657;-44
2022/10/28 11:22:25;;;;;;;6.30;3.47;;;;;;;19.16;88.03;101458.41;4992149;28;20244;-45
2022/10/28 11:25:15;;;;;;;11.32;3.83;;;;;;;19.19;88.13;101450.91;4996453;28;20358;-45
2022/10/28 11:27:56;;;;;;;10.73;4.13;;;;;;;19.31;88.24;101458.25;4996970;28;20192;-46
2022/10/28 11:30:35;;;;;;;14.90;4.20;;;;;;;19.08;87.98;101456.16;4995517;28;20212;-44
2022/10/28 11:33:23;;;;;;;8.32;4.05;;;;;;;19.13;88.20;101459.44;4976638;28;20504;-45